Time;durP1;ratioP1;P1;durP2;ratioP2;P2;SDS_P1;SDS_P2;PMS_P1;PMS_P2;Temp;Humidity;BMP_temperature;BMP_pressure;BME280_temperature;BME280_humidity;BME280_pressure;Samples;Min_cycle;Max_cycle;Signal;HPM_P1;HPM_P2
2021/12/08 00:00:43;;;;;;;;;20.00;16.00;;;;;21.06;44.51;100841.05;109172;1280;18549;-75
2021/12/08 00:03:08;;;;;;;;;14.00;14.00;;;;;21.05;44.65;100834.39;109188;1280;19114;-77
2021/12/08 00:05:34;;;;;;;;;14.00;12.00;;;;;21.04;44.57;100835.71;109266;1279;18710;-76
2021/12/08 00:08:00;;;;;;;;;16.00;12.00;;;;;21.04;44.43;100830.55;109239;1280;18273;-77
2021/12/08 00:10:52;;;;;;;;;14.00;12.00;;;;;21.04;44.56;100838.84;109215;1280;19893;-75
2021/12/08 00:13:18;;;;;;;;;24.00;18.00;;;;;21.03;44.62;100836.30;109241;1280;20306;-76
2021/12/08 00:15:44;;;;;;;;;14.00;14.00;;;;;21.04;44.64;100842.49;109253;1280;22137;-76
2021/12/08 00:18:10;;;;;;;;;14.50;14.50;;;;;21.05;44.55;100845.48;108771;1273;813481;-77
2021/12/08 00:20:36;;;;;;;;;13.00;13.00;;;;;21.05;44.60;100847.10;109200;1279;18620;-75
2021/12/08 00:23:02;;;;;;;;;17.00;13.50;;;;;21.05;44.60;100843.86;109177;1280;22058;-76
2021/12/08 00:25:29;;;;;;;;;13.50;12.50;;;;;21.04;44.38;100841.02;109538;1280;19367;-75
2021/12/08 00:27:55;;;;;;;;;16.00;14.00;;;;;21.04;44.59;100839.03;109219;1278;18900;-75
2021/12/08 00:30:21;;;;;;;;;16.50;13.50;;;;;21.06;44.56;100837.23;109191;1280;18016;-77
2021/12/08 00:32:47;;;;;;;;;14.50;14.00;;;;;21.04;44.48;100836.60;109229;1280;21057;-76
2021/12/08 00:35:13;;;;;;;;;16.50;13.00;;;;;21.04;44.63;100844.09;109265;1280;20130;-77
2021/12/08 00:37:39;;;;;;;;;13.50;13.00;;;;;21.04;44.46;100841.41;109309;1280;19508;-76
2021/12/08 00:40:05;;;;;;;;;14.00;13.50;;;;;21.05;44.22;100842.60;109258;1280;21195;-76
2021/12/08 00:42:31;;;;;;;;;17.00;17.00;;;;;21.03;44.43;100838.11;109224;1280;19240;-73
2021/12/08 00:44:59;;;;;;;;;14.00;12.00;;;;;21.02;44.31;100834.84;109214;1280;18154;-75
2021/12/08 00:47:25;;;;;;;;;14.00;13.50;;;;;21.03;44.40;100839.75;109220;1280;18860;-76
2021/12/08 00:49:51;;;;;;;;;18.00;14.00;;;;;21.02;44.56;100840.23;109160;1280;19313;-75
2021/12/08 00:52:17;;;;;;;;;13.00;13.00;;;;;21.04;44.33;100840.66;109275;1280;18711;-76
2021/12/08 00:54:43;;;;;;;;;16.00;13.00;;;;;21.03;44.25;100842.06;109313;1280;19215;-75
2021/12/08 00:57:09;;;;;;;;;13.50;12.50;;;;;21.03;44.39;100838.20;109342;1279;18709;-76
2021/12/08 00:59:35;;;;;;;;;13.00;12.00;;;;;21.04;44.27;100832.00;109488;1280;18097;-76
2021/12/08 01:02:02;;;;;;;;;14.50;13.00;;;;;21.02;44.38;100829.23;109327;1280;18516;-75
2021/12/08 01:04:28;;;;;;;;;18.33;16.67;;;;;21.03;44.30;100828.26;109297;1280;18942;-74
2021/12/08 01:06:54;;;;;;;;;12.50;12.00;;;;;21.01;44.17;100828.14;109349;1280;18058;-75
2021/12/08 01:09:20;;;;;;;;;16.00;14.00;;;;;21.00;44.24;100835.27;109347;1279;19173;-76
2021/12/08 01:11:47;;;;;;;;;14.00;13.00;;;;;21.02;44.28;100834.36;109291;1280;19315;-73
2021/12/08 01:14:13;;;;;;;;;16.67;13.00;;;;;21.01;44.22;100831.41;109297;1279;20461;-74
2021/12/08 01:16:39;;;;;;;;;16.00;16.00;;;;;21.01;44.27;100827.18;109259;1279;19015;-73
2021/12/08 01:19:05;;;;;;;;;15.00;13.50;;;;;21.01;44.10;100828.89;109360;1279;18594;-75
2021/12/08 01:21:31;;;;;;;;;13.50;13.00;;;;;21.00;44.17;100823.69;109335;1279;18337;-75
2021/12/08 01:23:57;;;;;;;;;14.00;13.50;;;;;21.00;44.18;100827.85;109333;1280;18492;-74
2021/12/08 01:26:25;;;;;;;;;17.00;16.00;;;;;21.00;44.06;100823.69;109375;1279;19388;-74
2021/12/08 01:28:52;;;;;;;;;15.67;14.67;;;;;21.00;44.14;100821.70;109383;1280;18892;-74
2021/12/08 01:31:18;;;;;;;;;16.33;14.00;;;;;20.99;44.22;100821.77;109368;1279;18921;-74
2021/12/08 01:33:44;;;;;;;;;17.00;13.00;;;;;21.00;44.09;100821.70;109401;1280;18624;-74
2021/12/08 01:36:10;;;;;;;;;16.00;14.00;;;;;20.99;44.20;100828.48;109331;1279;18069;-75
2021/12/08 01:38:36;;;;;;;;;16.00;14.00;;;;;20.99;44.10;100816.53;109315;1280;18609;-74
2021/12/08 01:41:02;;;;;;;;;16.50;14.00;;;;;20.99;44.13;100815.77;109264;1279;22383;-75
2021/12/08 01:43:39;;;;;;;;;13.00;13.00;;;;;20.98;44.11;100812.30;109280;1280;21189;-75
2021/12/08 01:46:05;;;;;;;;;17.00;13.33;;;;;20.98;44.05;100807.98;109328;1279;19328;-74
2021/12/08 01:48:31;;;;;;;;;15.00;12.50;;;;;20.98;44.17;100804.64;109296;1280;19150;-74
2021/12/08 01:50:57;;;;;;;;;14.00;14.00;;;;;20.98;44.10;100799.74;109340;1280;18064;-74
2021/12/08 01:53:23;;;;;;;;;16.00;14.00;;;;;20.97;43.95;100794.05;109301;1280;20553;-75
2021/12/08 01:55:49;;;;;;;;;15.50;14.00;;;;;20.98;44.02;100791.39;109299;1279;18620;-75
2021/12/08 01:58:15;;;;;;;;;17.00;13.00;;;;;20.98;43.89;100788.11;109302;1280;18324;-75
2021/12/08 02:00:41;;;;;;;;;18.00;14.00;;;;;20.99;43.86;100784.07;109325;1280;21809;-74
2021/12/08 02:03:07;;;;;;;;;14.00;13.00;;;;;20.98;43.84;100778.86;109265;1280;18588;-77
2021/12/08 02:05:32;;;;;;;;;13.00;13.00;;;;;20.98;43.83;100776.09;109307;1280;22361;-77
2021/12/08 02:07:58;;;;;;;;;13.00;13.00;;;;;20.97;43.85;100775.69;109295;1279;21812;-74
2021/12/08 02:10:24;;;;;;;;;14.00;13.00;;;;;20.97;43.89;100781.73;109294;1279;19092;-74
2021/12/08 02:12:50;;;;;;;;;16.00;14.00;;;;;20.96;43.97;100780.33;109314;1279;19299;-74
2021/12/08 02:15:16;;;;;;;;;14.00;14.00;;;;;20.95;43.82;100781.53;109291;1280;18603;-75
2021/12/08 02:17:42;;;;;;;;;14.00;14.00;;;;;20.96;43.93;100774.17;109311;1280;22119;-75
2021/12/08 02:20:08;;;;;;;;;12.00;12.00;;;;;20.95;43.87;100774.98;109318;1279;18161;-75
2021/12/08 02:22:34;;;;;;;;;16.00;14.00;;;;;20.93;43.74;100770.38;109332;1280;19191;-74
2021/12/08 02:25:00;;;;;;;;;14.50;13.50;;;;;20.95;43.72;100771.96;109333;1280;18630;-74
2021/12/08 02:27:26;;;;;;;;;13.50;13.00;;;;;20.93;43.74;100769.63;109264;1280;18695;-74
2021/12/08 02:29:56;;;;;;;;;13.00;12.00;;;;;20.94;43.90;100772.24;109317;1279;19143;-74
2021/12/08 02:46:39;;;;;;;;;16.00;13.00;;;;;20.93;43.67;100766.26;109344;1278;18864;-75
2021/12/08 02:46:45;;;;;;;;;14.33;14.00;;;;;20.95;43.44;100767.44;108714;1285;19530;-74
2021/12/08 02:49:11;;;;;;;;;13.33;12.33;;;;;20.95;43.49;100769.48;108683;1285;20298;-74
2021/12/08 02:51:37;;;;;;;;;16.00;13.00;;;;;20.92;43.54;100759.08;108758;1285;19378;-74
2021/12/08 02:54:03;;;;;;;;;13.50;12.00;;;;;20.97;43.42;100759.00;108733;1285;20932;-74
2021/12/08 02:56:30;;;;;;;;;16.50;15.50;;;;;20.96;43.32;100747.95;108700;1286;18616;-73
2021/12/08 02:58:56;;;;;;;;;14.00;13.00;;;;;20.95;43.33;100744.59;108728;1286;18594;-75
2021/12/08 03:01:22;;;;;;;;;13.00;13.00;;;;;20.97;43.38;100742.86;108747;1285;18636;-75
2021/12/08 03:03:48;;;;;;;;;15.50;13.00;;;;;20.95;43.50;100735.42;108872;1285;18963;-75
2021/12/08 03:06:14;;;;;;;;;12.00;12.00;;;;;20.96;43.22;100731.40;108720;1286;18175;-75
2021/12/08 03:08:40;;;;;;;;;12.50;12.50;;;;;20.96;43.45;100729.52;108754;1286;19768;-75
2021/12/08 03:11:06;;;;;;;;;14.00;13.00;;;;;20.95;43.18;100724.55;108770;1285;18622;-74
2021/12/08 03:13:32;;;;;;;;;12.00;11.00;;;;;20.96;43.20;100724.15;108705;1285;19007;-74
2021/12/08 03:15:58;;;;;;;;;15.67;13.00;;;;;20.97;43.29;100722.91;108726;1285;20370;-75
2021/12/08 03:18:31;;;;;;;;;11.33;11.33;;;;;20.95;43.21;100721.24;108747;1285;19727;-74
2021/12/08 03:20:57;;;;;;;;;13.00;12.00;;;;;20.95;43.28;100720.06;109101;1280;23232;-75
2021/12/08 03:23:30;;;;;;;;;13.50;12.50;;;;;20.95;43.28;100722.23;109329;1279;22317;-74
2021/12/08 03:25:58;;;;;;;;;16.33;13.33;;;;;20.95;43.29;100721.33;109282;1280;20095;-74
2021/12/08 03:28:28;;;;;;;;;12.33;10.67;;;;;20.95;43.46;100716.45;109248;1280;22047;-75
2021/12/08 03:31:00;;;;;;;;;14.00;13.00;;;;;20.92;43.27;100711.46;109314;1280;19597;-75
2021/12/08 03:33:26;;;;;;;;;17.33;13.00;;;;;20.94;43.21;100716.53;109358;1280;21772;-75
2021/12/08 03:35:52;;;;;;;;;16.00;13.00;;;;;20.94;43.29;100719.42;109346;1280;21160;-74
2021/12/08 03:38:18;;;;;;;;;12.00;12.00;;;;;20.94;43.26;100722.86;109324;1280;21570;-75
2021/12/08 03:40:44;;;;;;;;;12.00;12.00;;;;;20.91;43.46;100721.58;109318;1280;19228;-74
2021/12/08 03:43:10;;;;;;;;;13.00;13.00;;;;;20.93;43.18;100726.24;109314;1279;18615;-74
2021/12/08 03:45:35;;;;;;;;;13.00;12.00;;;;;20.94;43.25;100725.59;109412;1279;18490;-75
2021/12/08 03:48:03;;;;;;;;;16.00;14.00;;;;;20.93;43.06;100720.98;109266;1280;20089;-75
2021/12/08 03:50:29;;;;;;;;;12.00;10.00;;;;;20.93;43.26;100724.74;109307;1280;22271;-74
2021/12/08 03:52:55;;;;;;;;;13.00;13.00;;;;;20.93;43.24;100726.48;109270;1279;21953;-76
2021/12/08 03:55:21;;;;;;;;;13.00;13.00;;;;;20.92;43.19;100728.30;109396;1279;20757;-76
2021/12/08 03:57:47;;;;;;;;;17.00;14.00;;;;;20.93;43.17;100722.08;109354;1280;18878;-76
2021/12/08 04:00:13;;;;;;;;;15.50;12.50;;;;;20.93;43.12;100723.38;109322;1280;21678;-78
2021/12/08 04:02:39;;;;;;;;;12.00;10.00;;;;;20.93;43.14;100722.27;109321;1280;18544;-75
2021/12/08 04:05:05;;;;;;;;;11.00;11.00;;;;;20.93;43.14;100717.34;109357;1280;18972;-75
2021/12/08 04:07:31;;;;;;;;;13.00;13.00;;;;;20.93;43.10;100716.25;109272;1280;18984;-75
2021/12/08 04:09:57;;;;;;;;;12.33;12.00;;;;;20.93;43.23;100722.45;109285;1280;22390;-75
2021/12/08 04:12:23;;;;;;;;;13.00;12.00;;;;;20.92;43.10;100724.56;109292;1280;19223;-75
2021/12/08 04:14:49;;;;;;;;;12.00;12.00;;;;;20.91;42.97;100720.99;109363;1279;18519;-75
2021/12/08 04:17:15;;;;;;;;;10.00;10.00;;;;;20.92;42.91;100720.34;109350;1280;18724;-75
2021/12/08 04:19:41;;;;;;;;;11.00;11.00;;;;;20.92;43.05;100726.38;109289;1279;18261;-75
2021/12/08 04:22:07;;;;;;;;;14.00;12.00;;;;;20.92;43.04;100724.36;109296;1280;18581;-76
2021/12/08 04:24:33;;;;;;;;;13.00;12.00;;;;;20.92;42.88;100721.33;109283;1279;20244;-75
2021/12/08 04:26:59;;;;;;;;;12.00;11.00;;;;;20.91;42.86;100723.75;109282;1279;21925;-74
2021/12/08 04:29:25;;;;;;;;;12.00;12.00;;;;;20.92;43.03;100724.56;109334;1280;20013;-75
2021/12/08 04:31:51;;;;;;;;;13.50;12.00;;;;;20.90;43.00;100727.96;109285;1279;22516;-74
2021/12/08 04:34:19;;;;;;;;;13.00;11.33;;;;;20.90;42.92;100731.16;109353;1279;19338;-74
2021/12/08 04:36:46;;;;;;;;;13.67;12.00;;;;;20.90;42.86;100731.83;109364;1280;20374;-74
2021/12/08 04:39:15;;;;;;;;;12.00;10.00;;;;;20.90;42.94;100732.99;109305;1279;21262;-74
2021/12/08 04:41:46;;;;;;;;;12.33;10.00;;;;;20.90;42.87;100730.27;109293;1280;20661;-74
2021/12/08 04:44:23;;;;;;;;;12.67;10.00;;;;;20.91;42.96;100725.42;109312;1279;18756;-75
2021/12/08 04:47:01;;;;;;;;;12.00;11.00;;;;;20.90;42.70;100722.60;109294;1280;18822;-75
2021/12/08 04:49:50;;;;;;;;;12.67;12.00;;;;;20.90;42.72;100724.78;109286;1280;21002;-77
2021/12/08 04:52:21;;;;;;;;;12.00;10.00;;;;;20.91;42.69;100725.05;109270;1280;20463;-75
2021/12/08 05:00:45;;;;;;;;;12.00;12.00;;;;;20.91;42.67;100718.04;109340;1279;19404;-74
2021/12/08 05:03:41;;;;;;;;;15.50;12.00;;;;;20.91;42.71;100721.64;109289;1280;19106;-75
2021/12/08 05:06:19;;;;;;;;;12.00;11.00;;;;;20.90;42.55;100717.70;109325;1279;20270;-75
2021/12/08 05:08:45;;;;;;;;;13.00;11.67;;;;;20.89;42.62;100718.33;109348;1280;20462;-75
2021/12/08 05:11:11;;;;;;;;;13.00;13.00;;;;;20.90;42.74;100720.46;109360;1279;18624;-75
2021/12/08 05:13:37;;;;;;;;;13.00;12.00;;;;;20.91;42.59;100721.36;109285;1280;20913;-75
2021/12/08 05:16:03;;;;;;;;;12.00;10.00;;;;;20.91;42.45;100713.03;109322;1279;20115;-75
2021/12/08 05:18:29;;;;;;;;;13.00;13.00;;;;;20.91;42.70;100709.28;109355;1280;20669;-74
2021/12/08 05:20:56;;;;;;;;;9.00;9.00;;;;;20.91;42.53;100707.44;109339;1280;18053;-75
2021/12/08 05:23:23;;;;;;;;;17.67;16.00;;;;;20.91;42.62;100710.81;109341;1279;20289;-75
2021/12/08 05:25:49;;;;;;;;;13.50;13.50;;;;;20.91;42.64;100715.79;109323;1279;18613;-75
2021/12/08 05:28:15;;;;;;;;;14.00;13.00;;;;;20.90;42.54;100708.64;109300;1279;18836;-75
2021/12/08 05:30:41;;;;;;;;;12.50;10.00;;;;;20.90;42.56;100702.45;109318;1279;18491;-75
2021/12/08 05:33:07;;;;;;;;;15.50;12.50;;;;;20.89;42.57;100700.29;109337;1279;22449;-75
2021/12/08 05:35:32;;;;;;;;;12.50;11.00;;;;;20.89;42.57;100690.40;109349;1280;20509;-75
2021/12/08 05:37:58;;;;;;;;;12.50;12.00;;;;;20.88;42.52;100687.23;109409;1279;19082;-73
2021/12/08 05:40:24;;;;;;;;;13.00;12.00;;;;;20.88;42.54;100692.31;109355;1280;19224;-75
2021/12/08 05:42:50;;;;;;;;;13.00;13.00;;;;;20.87;42.52;100686.80;109316;1279;18225;-75
2021/12/08 05:45:16;;;;;;;;;12.00;11.00;;;;;20.88;42.48;100685.48;109328;1280;18562;-75
2021/12/08 05:47:42;;;;;;;;;13.00;13.00;;;;;20.86;42.34;100682.38;109323;1279;19505;-74
2021/12/08 05:50:08;;;;;;;;;10.00;10.00;;;;;20.89;42.44;100683.73;109184;1279;18274;-75
2021/12/08 05:52:34;;;;;;;;;12.00;10.00;;;;;20.88;42.27;100679.30;109147;1280;19175;-74
2021/12/08 05:55:00;;;;;;;;;13.50;12.50;;;;;20.88;42.35;100676.21;109189;1279;20749;-75
2021/12/08 05:57:26;;;;;;;;;9.50;9.50;;;;;20.87;42.39;100676.27;109127;1280;18172;-75
2021/12/08 05:59:52;;;;;;;;;12.00;10.00;;;;;20.89;42.25;100680.93;109127;1279;19157;-75
2021/12/08 06:02:18;;;;;;;;;15.00;13.50;;;;;20.89;42.18;100678.70;109250;1280;21188;-75
2021/12/08 06:04:44;;;;;;;;;16.00;12.50;;;;;20.91;42.38;100682.03;109306;1279;18057;-76
2021/12/08 06:07:10;;;;;;;;;13.50;13.00;;;;;20.93;42.21;100682.38;109304;1280;19182;-76
2021/12/08 06:09:36;;;;;;;;;13.50;13.00;;;;;20.94;42.89;100680.59;109264;1280;22714;-77
2021/12/08 06:12:02;;;;;;;;;13.00;12.00;;;;;20.99;42.52;100677.98;109343;1279;18909;-76
2021/12/08 06:14:32;;;;;;;;;12.00;12.00;;;;;21.01;42.62;100680.45;109338;1279;18795;-75
2021/12/08 06:16:58;;;;;;;;;13.67;13.00;;;;;21.00;42.73;100684.03;109348;1279;20867;-76
2021/12/08 06:19:24;;;;;;;;;12.67;12.00;;;;;21.01;42.80;100684.60;109323;1280;20865;-76
2021/12/08 06:21:50;;;;;;;;;13.50;12.00;;;;;21.09;43.15;100682.40;109270;1280;18443;-76
2021/12/08 06:24:16;;;;;;;;;13.00;12.00;;;;;21.14;43.46;100686.22;109323;1279;18673;-77
2021/12/08 06:26:42;;;;;;;;;10.50;9.50;;;;;21.14;43.51;100680.94;109312;1280;18853;-78
2021/12/08 06:29:08;;;;;;;;;13.00;12.00;;;;;21.14;43.37;100681.99;109284;1279;22213;-77
2021/12/08 06:31:35;;;;;;;;;15.50;12.00;;;;;21.18;43.54;100691.41;109261;1280;22069;-76
2021/12/08 06:34:01;;;;;;;;;13.00;10.00;;;;;21.17;43.37;100692.38;109381;1278;19917;-77
2021/12/08 06:36:27;;;;;;;;;12.00;10.00;;;;;21.18;43.26;100694.10;109348;1280;19299;-77
2021/12/08 06:38:53;;;;;;;;;17.00;12.50;;;;;21.22;43.34;100683.41;109341;1279;20440;-77
2021/12/08 06:41:19;;;;;;;;;13.00;12.00;;;;;21.23;43.59;100682.77;109342;1280;22311;-76
2021/12/08 06:43:45;;;;;;;;;13.50;12.50;;;;;21.25;43.89;100678.38;109285;1280;21819;-77
2021/12/08 06:46:11;;;;;;;;;13.00;12.00;;;;;21.26;44.07;100675.00;109328;1279;18547;-75
2021/12/08 06:48:37;;;;;;;;;13.00;12.33;;;;;21.31;44.06;100675.13;109314;1280;18390;-73
2021/12/08 06:51:03;;;;;;;;;16.33;14.67;;;;;21.30;43.99;100679.25;109325;1279;23048;-74
2021/12/08 06:53:29;;;;;;;;;9.00;9.00;;;;;21.31;43.75;100677.23;109274;1280;18634;-77
2021/12/08 06:55:55;;;;;;;;;17.00;12.00;;;;;21.29;44.15;100686.80;109228;1280;18115;-76
2021/12/08 06:58:21;;;;;;;;;12.00;11.00;;;;;21.23;44.30;100694.91;109260;1280;18526;-73
2021/12/08 07:00:51;;;;;;;;;12.00;10.00;;;;;21.24;44.19;100703.02;109313;1280;18552;-75
2021/12/08 07:03:31;;;;;;;;;13.00;12.00;;;;;21.23;44.13;100701.29;109278;1280;18594;-75
2021/12/08 07:06:07;;;;;;;;;10.00;10.00;;;;;21.22;44.14;100698.29;109366;1280;19164;-75
2021/12/08 07:08:33;;;;;;;;;16.00;13.00;;;;;21.16;44.18;100694.27;109397;1280;19648;-75
2021/12/08 07:10:59;;;;;;;;;14.50;12.50;;;;;21.13;44.38;100699.55;109327;1280;18031;-75
2021/12/08 07:13:26;;;;;;;;;13.00;13.00;;;;;21.10;44.25;100697.55;109343;1280;18641;-75
2021/12/08 07:15:52;;;;;;;;;14.67;10.67;;;;;21.07;44.15;100698.19;109363;1279;21736;-74
2021/12/08 07:18:18;;;;;;;;;10.00;9.00;;;;;21.08;44.03;100693.71;109377;1279;18157;-76
2021/12/08 07:20:46;;;;;;;;;13.50;12.00;;;;;21.10;44.04;100685.02;109295;1280;19261;-75
2021/12/08 07:23:11;;;;;;;;;13.00;13.00;;;;;21.12;44.12;100685.98;109312;1279;20444;-76
2021/12/08 07:25:37;;;;;;;;;16.00;14.00;;;;;21.12;44.01;100692.95;109348;1280;18064;-77
2021/12/08 07:28:04;;;;;;;;;18.00;16.00;;;;;21.12;43.94;100693.67;109324;1280;18629;-76
2021/12/08 07:30:30;;;;;;;;;13.00;13.00;;;;;21.15;43.82;100697.48;109383;1280;18853;-75
2021/12/08 07:32:56;;;;;;;;;15.00;13.00;;;;;21.18;43.98;100696.45;109339;1279;18121;-80
2021/12/08 07:35:22;;;;;;;;;14.00;13.00;;;;;21.18;44.17;100692.77;109358;1280;19154;-81
2021/12/08 07:37:48;;;;;;;;;14.00;12.00;;;;;21.21;44.59;100689.34;109376;1280;19286;-81
2021/12/08 07:40:14;;;;;;;;;16.00;13.00;;;;;21.21;44.64;100685.38;109377;1280;18714;-82
2021/12/08 07:42:40;;;;;;;;;13.67;12.33;;;;;21.21;44.65;100673.77;109346;1280;20887;-82
2021/12/08 07:45:06;;;;;;;;;13.00;12.00;;;;;21.23;44.89;100671.84;109323;1280;19209;-83
2021/12/08 07:47:32;;;;;;;;;13.00;13.00;;;;;21.28;44.67;100670.41;109374;1280;18796;-81
2021/12/08 07:49:58;;;;;;;;;17.00;13.00;;;;;21.29;44.65;100674.92;109340;1279;18509;-82
2021/12/08 07:52:24;;;;;;;;;16.50;13.00;;;;;21.32;44.64;100677.02;109318;1279;19178;-83
2021/12/08 07:54:49;;;;;;;;;16.00;14.00;;;;;21.34;44.95;100676.80;109324;1279;18175;-83
2021/12/08 07:57:15;;;;;;;;;15.00;14.00;;;;;21.37;45.33;100678.21;109361;1279;18568;-81
2021/12/08 07:59:42;;;;;;;;;16.00;13.50;;;;;21.38;45.62;100681.00;109259;1280;22178;-81
2021/12/08 08:02:08;;;;;;;;;20.00;16.67;;;;;21.40;45.75;100680.27;109266;1280;18963;-82
2021/12/08 08:04:34;;;;;;;;;14.00;13.00;;;;;21.37;46.57;100660.95;109333;1280;19141;-82
2021/12/08 08:07:00;;;;;;;;;16.00;13.00;;;;;21.42;46.50;100678.92;109256;1279;19059;-81
2021/12/08 08:09:27;;;;;;;;;21.00;17.50;;;;;21.42;46.79;100679.31;109220;1280;18053;-82
2021/12/08 08:11:56;;;;;;;;;12.00;10.00;;;;;21.40;46.75;100683.10;109297;1280;20636;-81
2021/12/08 08:14:22;;;;;;;;;16.00;14.00;;;;;21.39;47.10;100682.36;109327;1280;18876;-81
2021/12/08 08:16:50;;;;;;;;;18.00;16.00;;;;;21.39;46.78;100679.83;109418;1279;18206;-81
2021/12/08 08:19:18;;;;;;;;;16.00;13.67;;;;;21.35;47.07;100683.41;109265;1270;111334;-81
2021/12/08 08:21:44;;;;;;;;;14.00;13.00;;;;;21.34;47.13;100684.03;109341;1279;18780;-82
2021/12/08 08:24:10;;;;;;;;;18.00;16.50;;;;;21.36;47.05;100684.11;109366;1280;18074;-82
2021/12/08 08:26:36;;;;;;;;;15.00;13.50;;;;;21.37;46.73;100682.66;109382;1279;18570;-83
2021/12/08 08:29:02;;;;;;;;;17.00;13.50;;;;;21.37;46.45;100689.13;109342;1279;22703;-82
2021/12/08 08:31:28;;;;;;;;;17.50;16.50;;;;;21.42;46.21;100685.23;109339;1279;18233;-82
2021/12/08 08:33:54;;;;;;;;;13.00;13.00;;;;;21.45;46.29;100691.95;109205;1280;19229;-81
2021/12/08 08:36:20;;;;;;;;;18.00;17.00;;;;;21.43;46.58;100692.83;109326;1280;18578;-80
2021/12/08 08:38:46;;;;;;;;;30.50;26.00;;;;;21.42;46.42;100690.31;109273;1280;23048;-81
2021/12/08 08:41:12;;;;;;;;;40.00;35.50;;;;;21.43;45.94;100688.26;109278;1279;22283;-81
2021/12/08 08:43:38;;;;;;;;;51.50;40.50;;;;;21.39;45.64;100682.73;109263;1280;19237;-81
2021/12/08 08:46:06;;;;;;;;;95.67;67.67;;;;;21.41;45.72;100690.63;109270;1280;20555;-81
2021/12/08 08:48:32;;;;;;;;;105.33;85.00;;;;;21.40;45.60;100692.71;109276;1279;23162;-79
2021/12/08 08:50:58;;;;;;;;;104.67;83.67;;;;;21.35;45.74;100695.92;109346;1280;21312;-75
2021/12/08 08:53:24;;;;;;;;;95.00;69.00;;;;;21.30;45.48;100697.56;109296;1279;18541;-76
2021/12/08 08:55:50;;;;;;;;;89.33;64.00;;;;;21.23;44.75;100697.64;109144;1279;19044;-75
2021/12/08 08:58:16;;;;;;;;;91.00;67.33;;;;;21.19;44.14;100695.84;109241;1279;19333;-75
2021/12/08 09:00:42;;;;;;;;;90.67;63.67;;;;;21.19;44.21;100696.75;109340;1280;19129;-73
2021/12/08 09:03:08;;;;;;;;;82.67;61.00;;;;;21.19;43.75;100693.45;109304;1280;20262;-75
2021/12/08 09:05:34;;;;;;;;;81.67;58.67;;;;;21.19;43.15;100687.96;109354;1280;19314;-75
2021/12/08 09:08:00;;;;;;;;;74.67;57.00;;;;;21.21;42.96;100692.47;109283;1280;18164;-75
2021/12/08 09:10:26;;;;;;;;;73.33;53.67;;;;;21.22;42.57;100688.34;109323;1280;18667;-76
2021/12/08 09:12:52;;;;;;;;;70.00;51.67;;;;;21.22;42.40;100684.01;109197;1280;21823;-76
2021/12/08 09:15:18;;;;;;;;;61.00;49.00;;;;;21.21;41.98;100685.05;109299;1280;22718;-76
2021/12/08 09:17:44;;;;;;;;;71.67;53.00;;;;;21.20;41.59;100673.54;109393;1280;20591;-75
2021/12/08 09:20:10;;;;;;;;;65.00;47.00;;;;;21.23;41.29;100673.17;109308;1279;19241;-75
2021/12/08 09:22:36;;;;;;;;;66.33;49.00;;;;;21.22;41.24;100666.46;109213;1279;18268;-75
2021/12/08 09:25:02;;;;;;;;;55.33;45.00;;;;;21.22;41.28;100668.21;109308;1280;18565;-74
2021/12/08 09:27:28;;;;;;;;;62.33;48.00;;;;;21.21;40.34;100675.54;109328;1280;19322;-75
2021/12/08 09:29:56;;;;;;;;;65.67;46.67;;;;;21.23;41.10;100672.46;109330;1279;18409;-75
2021/12/08 09:32:23;;;;;;;;;60.33;47.00;;;;;21.22;41.34;100673.92;109361;1280;18844;-74
2021/12/08 09:34:54;;;;;;;;;55.33;44.33;;;;;21.22;41.37;100671.20;109317;1279;20773;-74
2021/12/08 09:37:20;;;;;;;;;61.00;46.00;;;;;21.23;41.44;100678.19;109252;1280;18295;-75
2021/12/08 09:39:46;;;;;;;;;51.00;39.50;;;;;21.25;41.16;100680.94;109246;1280;19145;-76
2021/12/08 09:42:12;;;;;;;;;48.00;39.50;;;;;21.25;41.05;100680.36;109407;1280;18583;-76
2021/12/08 09:44:38;;;;;;;;;47.00;40.50;;;;;21.25;41.47;100678.89;109266;1279;18058;-73
2021/12/08 09:47:04;;;;;;;;;48.50;41.50;;;;;21.25;41.24;100678.10;109288;1280;21793;-75
2021/12/08 09:49:30;;;;;;;;;41.00;36.50;;;;;21.26;41.10;100674.54;109349;1280;20201;-75
2021/12/08 09:51:56;;;;;;;;;43.50;40.00;;;;;21.25;41.12;100671.22;109302;1279;19104;-75
2021/12/08 09:54:21;;;;;;;;;37.00;34.00;;;;;21.26;41.29;100670.64;109333;1280;18522;-76
2021/12/08 09:56:49;;;;;;;;;44.00;38.00;;;;;21.25;41.42;100667.78;109229;1280;18657;-75
2021/12/08 09:59:15;;;;;;;;;53.50;40.00;;;;;21.25;41.30;100666.14;109352;1280;19891;-77
2021/12/08 10:01:42;;;;;;;;;43.00;38.00;;;;;21.25;41.83;100664.51;109301;1280;19862;-77
2021/12/08 10:04:08;;;;;;;;;39.67;34.33;;;;;21.27;41.42;100665.44;109300;1280;21517;-77
2021/12/08 10:06:34;;;;;;;;;44.00;36.00;;;;;21.30;41.47;100668.88;109305;1279;18104;-74
2021/12/08 10:09:00;;;;;;;;;37.00;33.00;;;;;21.30;41.93;100665.04;109308;1280;19370;-75
2021/12/08 10:11:26;;;;;;;;;38.50;33.50;;;;;21.29;41.81;100665.58;109323;1280;22260;-76
2021/12/08 10:13:52;;;;;;;;;33.50;28.50;;;;;21.30;41.41;100661.91;109312;1280;18684;-76
2021/12/08 10:16:18;;;;;;;;;36.00;28.50;;;;;21.29;41.79;100657.14;109277;1280;18547;-75
2021/12/08 10:18:44;;;;;;;;;36.00;34.00;;;;;21.28;41.72;100654.95;109254;1280;18806;-74
2021/12/08 10:21:10;;;;;;;;;39.33;29.00;;;;;21.32;41.14;100656.68;109363;1279;18521;-75
2021/12/08 10:23:36;;;;;;;;;35.00;29.50;;;;;21.31;41.65;100656.38;109361;1280;18551;-75
2021/12/08 10:26:02;;;;;;;;;33.00;29.00;;;;;21.30;41.79;100656.70;109327;1279;19145;-75
2021/12/08 10:28:28;;;;;;;;;27.00;25.00;;;;;21.32;41.75;100657.19;109136;1279;21315;-72
2021/12/08 10:30:54;;;;;;;;;30.00;25.00;;;;;21.31;41.64;100655.84;109184;1279;18535;-75
2021/12/08 10:33:22;;;;;;;;;29.00;27.50;;;;;21.32;41.28;100656.77;109216;1280;18617;-73
2021/12/08 10:36:00;;;;;;;;;28.00;26.33;;;;;21.33;41.05;100651.55;109257;1280;20064;-75
2021/12/08 10:38:26;;;;;;;;;39.00;32.00;;;;;21.33;40.74;100647.80;109228;1280;18799;-74
2021/12/08 10:40:52;;;;;;;;;29.00;26.50;;;;;21.36;40.85;100646.48;109255;1279;19090;-74
2021/12/08 10:43:18;;;;;;;;;24.50;21.50;;;;;21.35;41.19;100640.67;109375;1280;18415;-74
2021/12/08 10:45:45;;;;;;;;;32.00;24.00;;;;;21.34;41.37;100643.16;109332;1280;18622;-74
2021/12/08 10:48:11;;;;;;;;;25.67;24.67;;;;;21.31;41.23;100631.77;109302;1280;20586;-74
2021/12/08 10:56:05;;;;;;;;;33.00;24.00;;;;;21.29;41.33;100625.70;109360;1279;19252;-74
2021/12/08 10:58:31;;;;;;;;;30.00;26.00;;;;;21.30;41.29;100624.20;109331;1279;18962;-73
2021/12/08 11:00:57;;;;;;;;;28.00;25.50;;;;;21.32;41.23;100614.16;109170;1280;20142;-73
2021/12/08 11:03:23;;;;;;;;;25.67;24.00;;;;;21.33;41.23;100616.29;109187;1279;20400;-73
2021/12/08 11:05:49;;;;;;;;;31.00;24.50;;;;;21.32;41.43;100607.70;109207;1280;19526;-73
2021/12/08 11:08:15;;;;;;;;;29.00;26.50;;;;;21.32;41.47;100609.71;109198;1279;21088;-73
2021/12/08 11:10:41;;;;;;;;;28.00;24.00;;;;;21.30;41.52;100607.20;109328;1280;18589;-73
2021/12/08 11:13:07;;;;;;;;;28.00;24.00;;;;;21.29;41.42;100610.21;109412;1280;19242;-73
2021/12/08 11:15:33;;;;;;;;;30.33;27.67;;;;;21.28;41.18;100603.52;109406;1280;19931;-73
2021/12/08 11:17:59;;;;;;;;;29.00;24.50;;;;;21.30;40.76;100597.09;109376;1280;18555;-73
2021/12/08 11:20:31;;;;;;;;;25.00;24.00;;;;;21.30;41.18;100596.86;109317;1280;18622;-74
2021/12/08 11:22:57;;;;;;;;;25.33;24.00;;;;;21.31;41.23;100604.75;109317;1280;18923;-73